Time,TemperatureF,DewpointF,PressureIn,WindDirection,WindDirectionDegrees,WindSpeedMPH,WindSpeedGustMPH,Humidity,HourlyPrecipIn,Conditions,Clouds,dailyrainin,SoftwareType,DateUTC
2013-06-06 00:12:00,54.0,48.0,30.14,East,79,0.0,1.0,81,0.00,,,0.00,weatherlink.com 1.10,2013-06-06 04:12:00,
2013-06-06 00:27:00,53.6,48.0,30.13,East,79,0.0,1.0,82,0.00,,,0.00,weatherlink.com 1.10,2013-06-06 04:27:00,
2013-06-06 00:42:00,53.6,49.0,30.14,East,79,0.0,0.0,83,0.00,,,0.00,weatherlink.com 1.10,2013-06-06 04:42:00,
2013-06-06 00:57:00,53.8,48.0,30.13,East,79,0.0,1.0,82,0.00,,,0.00,weatherlink.com 1.10,2013-06-06 04:57:00,
2013-06-06 01:12:00,53.5,48.0,30.14,East,79,0.0,0.0,82,0.00,,,0.00,weatherlink.com 1.10,2013-06-06 05:12:00,
2013-06-06 01:27:00,53.2,48.0,30.14,East,79,0.0,0.0,81,0.00,,,0.00,weatherlink.com 1.10,2013-06-06 05:27:00,
2013-06-06 01:42:00,53.2,48.0,30.13,East,79,0.0,0.0,83,0.00,,,0.00,weatherlink.com 1.10,2013-06-06 05:42:00,
2013-06-06 01:57:00,52.9,48.0,30.14,East,79,0.0,0.0,83,0.00,,,0.00,weatherlink.com 1.10,2013-06-06 05:57:00,
2013-06-06 02:12:00,52.7,48.0,30.14,East,79,0.0,0.0,84,0.00,,,0.00,weatherlink.com 1.10,2013-06-06 06:12:00,
2013-06-06 02:27:00,52.6,48.0,30.15,East,79,0.0,0.0,84,0.00,,,0.00,weatherlink.com 1.10,2013-06-06 06:27:00,
2013-06-06 02:42:00,52.3,48.0,30.15,East,79,0.0,0.0,85,0.00,,,0.00,weatherlink.com 1.10,2013-06-06 06:42:00,
2013-06-06 02:57:00,51.9,48.0,30.16,East,79,0.0,0.0,86,0.00,,,0.00,weatherlink.com 1.10,2013-06-06 06:57:00,
2013-06-06 03:12:00,51.9,48.0,30.15,East,79,0.0,0.0,86,0.00,,,0.00,weatherlink.com 1.10,2013-06-06 07:12:00,
2013-06-06 03:27:00,51.9,48.0,30.14,East,79,0.0,0.0,87,0.00,,,0.00,weatherlink.com 1.10,2013-06-06 07:27:00,
2013-06-06 03:42:00,51.6,48.0,30.14,East,79,0.0,0.0,86,0.00,,,0.00,weatherlink.com 1.10,2013-06-06 07:42:00,
2013-06-06 03:57:00,51.6,47.0,30.14,East,79,0.0,0.0,85,0.00,,,0.00,weatherlink.com 1.10,2013-06-06 07:57:00,
2013-06-06 04:12:00,51.5,48.0,30.14,East,79,0.0,0.0,86,0.00,,,0.00,weatherlink.com 1.10,2013-06-06 08:12:00,
2013-06-06 04:27:00,51.4,47.0,30.14,East,79,0.0,0.0,85,0.00,,,0.00,weatherlink.com 1.10,2013-06-06 08:27:00,
2013-06-06 04:42:00,51.5,47.0,30.14,East,79,0.0,0.0,84,0.00,,,0.00,weatherlink.com 1.10,2013-06-06 08:42:00,
2013-06-06 04:57:00,51.5,47.0,30.15,East,79,0.0,1.0,85,0.00,,,0.00,weatherlink.com 1.10,2013-06-06 08:57:00,
2013-06-06 05:12:00,51.4,47.0,30.15,East,79,0.0,0.0,86,0.00,,,0.00,weatherlink.com 1.10,2013-06-06 09:12:00,
2013-06-06 05:27:00,50.8,47.0,30.15,East,79,0.0,0.0,88,0.00,,,0.00,weatherlink.com 1.10,2013-06-06 09:27:00,
2013-06-06 05:42:00,50.5,47.0,30.16,East,79,0.0,1.0,89,0.00,,,0.00,weatherlink.com 1.10,2013-06-06 09:42:00,
2013-06-06 05:57:00,50.6,48.0,30.17,East,79,0.0,0.0,89,0.00,,,0.00,weatherlink.com 1.10,2013-06-06 09:57:00,
2013-06-06 06:15:00,51.0,48.0,30.17,East,79,0.0,0.0,90,0.00,,,0.00,weatherlink.com 1.10,2013-06-06 10:15:00,
2013-06-06 06:27:00,51.8,48.0,30.17,East,79,0.0,0.0,88,0.00,,,0.00,weatherlink.com 1.10,2013-06-06 10:27:00,
2013-06-06 06:42:00,53.5,49.0,30.17,East,79,0.0,0.0,83,0.00,,,0.00,weatherlink.com 1.10,2013-06-06 10:42:00,
2013-06-06 06:58:00,54.7,49.0,30.18,East,79,0.0,0.0,80,0.00,,,0.00,weatherlink.com 1.10,2013-06-06 10:58:00,
2013-06-06 07:13:00,54.8,48.0,30.18,NNW,345,1.0,1.0,78,0.00,,,0.00,weatherlink.com 1.10,2013-06-06 11:13:00,
2013-06-06 07:28:00,55.9,48.0,30.18,WNW,291,1.0,3.0,75,0.00,,,0.00,weatherlink.com 1.10,2013-06-06 11:28:00,
2013-06-06 07:43:00,56.2,48.0,30.18,West,265,0.0,4.0,74,0.00,,,0.00,weatherlink.com 1.10,2013-06-06 11:43:00,
2013-06-06 07:58:00,57.0,47.0,30.18,West,265,0.0,1.0,69,0.00,,,0.00,weatherlink.com 1.10,2013-06-06 11:58:00,
2013-06-06 08:13:00,59.0,47.0,30.18,West,265,0.0,0.0,65,0.00,,,0.00,weatherlink.com 1.10,2013-06-06 12:13:00,
2013-06-06 08:28:00,60.4,47.0,30.18,West,265,0.0,2.0,62,0.00,,,0.00,weatherlink.com 1.10,2013-06-06 12:28:00,
2013-06-06 08:43:00,61.1,48.0,30.18,West,265,1.0,2.0,63,0.00,,,0.00,weatherlink.com 1.10,2013-06-06 12:43:00,
2013-06-06 08:58:00,62.6,46.0,30.18,SE,141,0.0,3.0,54,0.00,,,0.00,weatherlink.com 1.10,2013-06-06 12:58:00,
2013-06-06 09:13:00,64.1,44.0,30.18,East,90,2.0,7.0,49,0.00,,,0.00,weatherlink.com 1.10,2013-06-06 13:13:00,
2013-06-06 09:28:00,64.6,40.0,30.18,SE,129,3.0,8.0,40,0.00,,,0.00,weatherlink.com 1.10,2013-06-06 13:28:00,
2013-06-06 09:43:00,65.4,40.0,30.17,East,92,5.0,7.0,40,0.00,,,0.00,weatherlink.com 1.10,2013-06-06 13:43:00,
2013-06-06 09:58:00,65.5,41.0,30.17,ESE,109,1.0,10.0,41,0.00,,,0.00,weatherlink.com 1.10,2013-06-06 13:58:00,
2013-06-06 10:13:00,66.0,41.0,30.16,ESE,108,4.0,10.0,41,0.00,,,0.00,weatherlink.com 1.10,2013-06-06 14:13:00,
2013-06-06 10:28:00,66.3,42.0,30.15,East,79,3.0,7.0,41,0.00,,,0.00,weatherlink.com 1.10,2013-06-06 14:28:00,
2013-06-06 10:43:00,66.7,42.0,30.15,SE,136,2.0,10.0,41,0.00,,,0.00,weatherlink.com 1.10,2013-06-06 14:43:00,
2013-06-06 10:58:00,67.9,43.0,30.14,ENE,70,4.0,9.0,40,0.00,,,0.00,weatherlink.com 1.10,2013-06-06 14:58:00,
2013-06-06 11:13:00,67.9,44.0,30.14,ENE,78,3.0,9.0,42,0.00,,,0.00,weatherlink.com 1.10,2013-06-06 15:13:00,
2013-06-06 11:28:00,68.7,45.0,30.14,ENE,68,4.0,9.0,42,0.00,,,0.00,weatherlink.com 1.10,2013-06-06 15:28:00,
2013-06-06 11:43:00,69.2,44.0,30.14,ENE,59,1.0,9.0,40,0.00,,,0.00,weatherlink.com 1.10,2013-06-06 15:43:00,
2013-06-06 11:58:00,69.2,42.0,30.13,ENE,72,0.0,9.0,38,0.00,,,0.00,weatherlink.com 1.10,2013-06-06 15:58:00,
2013-06-06 12:13:00,69.7,44.0,30.13,East,91,3.0,10.0,40,0.00,,,0.00,weatherlink.com 1.10,2013-06-06 16:13:00,
2013-06-06 12:29:00,70.8,45.0,30.12,NE,49,0.0,9.0,39,0.00,,,0.00,weatherlink.com 1.10,2013-06-06 16:29:00,
2013-06-06 12:43:00,70.5,46.0,30.12,ENE,71,7.0,10.0,41,0.00,,,0.00,weatherlink.com 1.10,2013-06-06 16:43:00,
2013-06-06 12:58:00,71.6,47.0,30.11,ENE,59,1.0,9.0,41,0.00,,,0.00,weatherlink.com 1.10,2013-06-06 16:58:00,
2013-06-06 13:13:00,71.7,45.0,30.11,East,86,8.0,13.0,38,0.00,,,0.00,weatherlink.com 1.10,2013-06-06 17:13:00,
2013-06-06 13:28:00,71.5,45.0,30.11,NNE,31,0.0,9.0,39,0.00,,,0.00,weatherlink.com 1.10,2013-06-06 17:28:00,
2013-06-06 13:43:00,72.3,47.0,30.10,ESE,109,0.0,10.0,40,0.00,,,0.00,weatherlink.com 1.10,2013-06-06 17:43:00,
2013-06-06 13:59:00,72.5,46.0,30.10,East,98,2.0,11.0,39,0.00,,,0.00,weatherlink.com 1.10,2013-06-06 17:59:00,
2013-06-06 14:14:00,73.3,47.0,30.09,East,98,9.0,14.0,39,0.00,,,0.00,weatherlink.com 1.10,2013-06-06 18:14:00,
2013-06-06 14:29:00,73.0,49.0,30.09,North,5,0.0,6.0,43,0.00,,,0.00,weatherlink.com 1.10,2013-06-06 18:29:00,
2013-06-06 14:44:00,73.1,47.0,30.09,SSE,153,0.0,10.0,40,0.00,,,0.00,weatherlink.com 1.10,2013-06-06 18:44:00,
2013-06-06 14:59:00,73.1,49.0,30.09,ESE,109,1.0,12.0,42,0.00,,,0.00,weatherlink.com 1.10,2013-06-06 18:59:00,
2013-06-06 15:14:00,72.5,49.0,30.08,ESE,111,0.0,9.0,43,0.00,,,0.00,weatherlink.com 1.10,2013-06-06 19:14:00,
2013-06-06 15:29:00,72.2,50.0,30.07,SE,132,0.0,7.0,46,0.00,,,0.00,weatherlink.com 1.10,2013-06-06 19:29:00,
2013-06-06 15:44:00,72.0,51.0,30.07,SE,138,2.0,6.0,47,0.00,,,0.00,weatherlink.com 1.10,2013-06-06 19:44:00,
2013-06-06 15:59:00,71.5,50.0,30.07,ESE,113,0.0,5.0,47,0.00,,,0.00,weatherlink.com 1.10,2013-06-06 19:59:00,
2013-06-06 16:14:00,71.0,51.0,30.07,East,101,6.0,7.0,49,0.00,,,0.00,weatherlink.com 1.10,2013-06-06 20:14:00,
2013-06-06 16:29:00,70.9,52.0,30.07,ESE,119,0.0,5.0,51,0.00,,,0.00,weatherlink.com 1.10,2013-06-06 20:29:00,
2013-06-06 16:44:00,70.8,51.0,30.07,SE,145,3.0,7.0,50,0.00,,,0.00,weatherlink.com 1.10,2013-06-06 20:44:00,
2013-06-06 16:59:00,70.5,51.0,30.07,SE,134,3.0,6.0,51,0.00,,,0.00,weatherlink.com 1.10,2013-06-06 20:59:00,
2013-06-06 17:14:00,69.9,51.0,30.07,SE,132,0.0,6.0,51,0.00,,,0.00,weatherlink.com 1.10,2013-06-06 21:14:00,
2013-06-06 17:29:00,69.2,52.0,30.08,East,86,3.0,7.0,54,0.00,,,0.00,weatherlink.com 1.10,2013-06-06 21:29:00,
2013-06-06 17:44:00,69.2,53.0,30.08,East,85,0.0,5.0,56,0.00,,,0.00,weatherlink.com 1.10,2013-06-06 21:44:00,
2013-06-06 17:59:00,68.5,53.0,30.08,ESE,107,0.0,9.0,58,0.00,,,0.00,weatherlink.com 1.10,2013-06-06 21:59:00,
2013-06-06 18:14:00,67.8,53.0,30.09,SE,124,1.0,8.0,60,0.00,,,0.00,weatherlink.com 1.10,2013-06-06 22:14:00,
2013-06-06 18:29:00,67.1,54.0,30.09,ESE,102,2.0,5.0,63,0.00,,,0.00,weatherlink.com 1.10,2013-06-06 22:29:00,
2013-06-06 18:44:00,66.7,53.0,30.10,East,97,1.0,10.0,62,0.00,,,0.00,weatherlink.com 1.10,2013-06-06 22:44:00,
2013-06-06 18:59:00,66.0,53.0,30.10,ESE,120,2.0,11.0,63,0.00,,,0.00,weatherlink.com 1.10,2013-06-06 22:59:00,
2013-06-06 19:14:00,65.5,52.0,30.10,ESE,121,0.0,7.0,63,0.00,,,0.00,weatherlink.com 1.10,2013-06-06 23:14:00,
2013-06-06 19:29:00,64.9,52.0,30.10,East,80,2.0,10.0,63,0.00,,,0.00,weatherlink.com 1.10,2013-06-06 23:29:00,
2013-06-06 19:45:00,64.3,51.0,30.10,East,91,1.0,8.0,62,0.00,,,0.00,weatherlink.com 1.10,2013-06-06 23:45:00,
2013-06-06 19:59:00,63.8,50.0,30.10,ENE,78,0.0,9.0,62,0.00,,,0.00,weatherlink.com 1.10,2013-06-06 23:59:00,
2013-06-06 20:14:00,63.5,50.0,30.10,East,80,0.0,5.0,62,0.00,,,0.00,weatherlink.com 1.10,2013-06-07 00:14:00,
2013-06-06 20:29:00,63.1,50.0,30.10,East,81,0.0,4.0,63,0.00,,,0.00,weatherlink.com 1.10,2013-06-07 00:29:00,
2013-06-06 20:44:00,62.7,50.0,30.10,ENE,71,0.0,3.0,63,0.00,,,0.00,weatherlink.com 1.10,2013-06-07 00:44:00,
2013-06-06 20:59:00,62.3,50.0,30.11,ENE,71,0.0,1.0,64,0.00,,,0.00,weatherlink.com 1.10,2013-06-07 00:59:00,
2013-06-06 21:14:00,61.9,49.0,30.12,NE,53,0.0,5.0,64,0.00,,,0.00,weatherlink.com 1.10,2013-06-07 01:14:00,
2013-06-06 21:29:00,61.4,50.0,30.11,NE,34,0.0,5.0,66,0.00,,,0.00,weatherlink.com 1.10,2013-06-07 01:29:00,
2013-06-06 21:44:00,60.2,50.0,30.11,NE,34,0.0,0.0,70,0.00,,,0.00,weatherlink.com 1.10,2013-06-07 01:44:00,
2013-06-06 21:59:00,59.5,52.0,30.11,NE,34,0.0,0.0,75,0.00,,,0.00,weatherlink.com 1.10,2013-06-07 01:59:00,
2013-06-06 22:14:00,59.0,51.0,30.11,NE,34,0.0,1.0,74,0.00,,,0.00,weatherlink.com 1.10,2013-06-07 02:14:00,
2013-06-06 22:29:00,58.9,51.0,30.10,NE,34,0.0,1.0,74,0.00,,,0.00,weatherlink.com 1.10,2013-06-07 02:29:00,
2013-06-06 22:44:00,58.9,51.0,30.10,NE,34,0.0,1.0,75,0.00,,,0.00,weatherlink.com 1.10,2013-06-07 02:44:00,
2013-06-06 22:59:00,58.5,51.0,30.09,NE,34,0.0,0.0,76,0.00,,,0.00,weatherlink.com 1.10,2013-06-07 02:59:00,
2013-06-06 23:14:00,58.1,52.0,30.09,NE,34,0.0,0.0,79,0.00,,,0.00,weatherlink.com 1.10,2013-06-07 03:14:00,
2013-06-06 23:29:00,58.1,52.0,30.09,NE,34,0.0,0.0,79,0.00,,,0.00,weatherlink.com 1.10,2013-06-07 03:29:00,
2013-06-06 23:44:00,57.7,53.0,30.09,NE,34,0.0,1.0,83,0.00,,,0.00,weatherlink.com 1.10,2013-06-07 03:44:00,
2013-06-06 23:59:00,57.5,53.0,30.09,NE,34,0.0,0.0,84,0.00,,,0.00,weatherlink.com 1.10,2013-06-07 03:59:00,